createdAt,value
2018-08-24T00:00:30.240Z,8.46
2018-08-24T00:02:57.971Z,8.46
2018-08-24T00:05:25.753Z,8.50
2018-08-24T00:07:53.488Z,8.49
2018-08-24T00:10:21.210Z,8.49
2018-08-24T00:12:48.936Z,8.49
2018-08-24T00:15:16.661Z,8.48
2018-08-24T00:17:47.856Z,8.50
2018-08-24T00:20:15.544Z,8.53
2018-08-24T00:22:43.392Z,8.54
2018-08-24T00:25:11.124Z,8.50
2018-08-24T00:27:38.867Z,8.48
2018-08-24T00:30:07.198Z,8.46
2018-08-24T00:32:34.943Z,8.49
2018-08-24T00:35:02.693Z,8.53
2018-08-24T00:37:30.414Z,8.55
2018-08-24T00:39:58.137Z,8.59
2018-08-24T00:42:25.837Z,8.59
2018-08-24T00:44:53.547Z,8.58
2018-08-24T00:47:21.301Z,8.58
2018-08-24T00:49:49.040Z,8.62
2018-08-24T00:52:16.914Z,8.61
2018-08-24T00:54:44.647Z,8.64
2018-08-24T00:57:12.402Z,8.66
2018-08-24T00:59:40.076Z,8.66
2018-08-24T01:02:07.900Z,8.66
2018-08-24T01:04:36.347Z,8.66
2018-08-24T01:07:12.122Z,8.61
2018-08-24T01:09:40.492Z,8.64
2018-08-24T01:12:12.169Z,8.66
2018-08-24T01:14:42.379Z,8.59
2018-08-24T01:17:15.660Z,8.55
2018-08-24T01:19:43.869Z,8.55
2018-08-24T01:22:11.616Z,8.57
2018-08-24T01:24:39.417Z,8.60
2018-08-24T01:27:07.863Z,8.60
2018-08-24T01:29:42.911Z,8.61
2018-08-24T01:32:10.669Z,8.66
2018-08-24T01:34:38.671Z,8.69
2018-08-24T01:37:06.499Z,8.72
2018-08-24T01:39:34.240Z,8.73
2018-08-24T01:42:02.226Z,8.77
2018-08-24T01:44:30.232Z,8.78
2018-08-24T01:46:57.907Z,8.83
2018-08-24T01:49:25.931Z,8.86
2018-08-24T01:51:53.663Z,8.86
2018-08-24T01:54:21.419Z,8.85
2018-08-24T01:56:49.186Z,8.82
2018-08-24T01:59:16.948Z,8.83
2018-08-24T02:01:44.716Z,8.87
2018-08-24T02:04:12.460Z,8.87
2018-08-24T02:06:40.197Z,8.88
2018-08-24T02:09:09.608Z,8.86
2018-08-24T02:11:37.443Z,8.84
2018-08-24T02:14:15.834Z,8.85
2018-08-24T02:16:43.806Z,8.81
2018-08-24T02:19:23.266Z,8.77
2018-08-24T02:21:56.536Z,8.79
2018-08-24T02:24:24.271Z,8.82
2018-08-24T02:26:52.059Z,8.83
2018-08-24T02:29:19.776Z,8.83
2018-08-24T02:31:48.478Z,8.83
2018-08-24T02:34:16.175Z,8.87
2018-08-24T02:36:44.408Z,8.89
2018-08-24T02:39:14.412Z,8.92
2018-08-24T02:41:42.372Z,8.96
2018-08-24T02:44:10.479Z,9.01
2018-08-24T02:46:38.632Z,9.03
2018-08-24T02:49:06.365Z,9.05
2018-08-24T02:51:34.316Z,9.06
2018-08-24T02:54:02.061Z,9.07
2018-08-24T02:56:29.896Z,9.06
2018-08-24T02:58:57.610Z,9.07
2018-08-24T03:01:25.368Z,9.09
2018-08-24T03:03:53.133Z,9.09
2018-08-24T03:06:20.953Z,9.12
2018-08-24T03:08:48.655Z,9.12
2018-08-24T03:11:16.378Z,9.13
2018-08-24T03:13:44.105Z,9.17
2018-08-24T03:16:11.815Z,9.18
2018-08-24T03:18:39.527Z,9.22
2018-08-24T03:21:07.237Z,9.25
2018-08-24T03:23:34.941Z,9.28
2018-08-24T03:26:02.648Z,9.30
2018-08-24T03:28:30.340Z,9.30
2018-08-24T03:30:58.019Z,9.29
2018-08-24T03:33:25.768Z,9.30
2018-08-24T03:35:53.495Z,9.30
2018-08-24T03:38:21.218Z,9.31
2018-08-24T03:40:48.994Z,9.30
2018-08-24T03:43:16.997Z,9.29
2018-08-24T03:45:44.724Z,9.31
2018-08-24T03:48:12.383Z,9.29
2018-08-24T03:50:40.102Z,9.33
2018-08-24T03:53:07.859Z,9.34
2018-08-24T03:55:36.499Z,9.34
2018-08-24T03:58:05.502Z,9.36
2018-08-24T04:00:33.259Z,9.39
2018-08-24T04:03:01.020Z,9.43
2018-08-24T04:05:28.731Z,9.48
2018-08-24T04:07:56.466Z,9.53
2018-08-24T04:10:25.463Z,9.57
2018-08-24T04:12:53.676Z,9.60
2018-08-24T04:15:21.663Z,9.64
2018-08-24T04:17:49.335Z,9.69
2018-08-24T04:20:17.039Z,9.73
2018-08-24T04:22:44.972Z,9.78
2018-08-24T04:25:12.695Z,9.83
2018-08-24T04:27:40.425Z,9.86
2018-08-24T04:30:08.828Z,9.91
2018-08-24T04:32:36.636Z,9.95
2018-08-24T04:35:04.901Z,9.99
2018-08-24T04:37:32.528Z,10.01
2018-08-24T04:40:00.348Z,10.05
2018-08-24T04:42:28.137Z,10.09
2018-08-24T04:44:55.838Z,10.12
2018-08-24T04:47:23.568Z,10.16
2018-08-24T04:49:51.719Z,10.18
2018-08-24T04:52:19.499Z,10.22
2018-08-24T04:54:47.216Z,10.24
2018-08-24T04:57:14.976Z,10.26
2018-08-24T04:59:42.673Z,10.30
2018-08-24T05:02:11.044Z,10.32
2018-08-24T05:04:38.804Z,10.37
2018-08-24T05:07:06.563Z,10.43
2018-08-24T05:09:34.335Z,10.45
2018-08-24T05:12:02.057Z,10.48
2018-08-24T05:14:29.757Z,10.51
2018-08-24T05:16:57.508Z,10.54
2018-08-24T05:19:25.203Z,10.58
2018-08-24T05:21:52.961Z,10.60
2018-08-24T05:24:20.660Z,10.65
2018-08-24T05:26:48.336Z,10.68
2018-08-24T05:29:16.123Z,10.73
2018-08-24T05:31:43.850Z,10.76
2018-08-24T05:34:11.560Z,10.81
2018-08-24T05:36:39.291Z,10.85
2018-08-24T05:39:07.876Z,10.88
2018-08-24T05:41:35.622Z,10.90
2018-08-24T05:44:03.400Z,10.92
2018-08-24T05:46:31.193Z,10.93
2018-08-24T05:48:58.914Z,10.96
2018-08-24T05:51:26.768Z,10.95
2018-08-24T05:53:54.500Z,10.99
2018-08-24T05:56:22.183Z,11.00
2018-08-24T05:58:49.867Z,11.01
2018-08-24T06:01:17.688Z,11.02
2018-08-24T06:03:45.387Z,10.98
2018-08-24T06:06:13.074Z,11.00
2018-08-24T06:08:40.765Z,11.00
2018-08-24T06:11:08.485Z,11.01
2018-08-24T06:13:36.196Z,11.04
2018-08-24T06:16:03.917Z,11.05
2018-08-24T06:18:31.615Z,11.07
2018-08-24T06:20:59.347Z,11.10
2018-08-24T06:23:27.105Z,11.13
2018-08-24T06:25:54.816Z,11.12
2018-08-24T06:28:22.527Z,11.12
2018-08-24T06:30:50.272Z,11.12
2018-08-24T06:33:20.912Z,11.14
2018-08-24T06:35:48.628Z,11.12
2018-08-24T06:38:16.304Z,11.14
2018-08-24T06:40:43.999Z,11.17
2018-08-24T06:43:11.788Z,11.20
2018-08-24T06:45:39.504Z,11.17
2018-08-24T06:48:07.236Z,11.16
2018-08-24T06:50:35.053Z,11.16
2018-08-24T06:53:03.064Z,11.16
2018-08-24T06:55:30.803Z,11.16
2018-08-24T06:57:58.554Z,11.15
2018-08-24T07:00:30.842Z,11.18
2018-08-24T07:02:59.063Z,11.18
2018-08-24T07:05:26.753Z,11.22
2018-08-24T07:07:54.749Z,11.26
2018-08-24T07:10:22.459Z,11.26
2018-08-24T07:12:50.167Z,11.29
2018-08-24T07:15:17.936Z,11.33
2018-08-24T07:17:51.112Z,11.36
2018-08-24T07:20:18.891Z,11.33
2018-08-24T07:22:46.796Z,11.32
2018-08-24T07:25:15.208Z,11.34
2018-08-24T07:27:42.914Z,11.37
2018-08-24T07:30:10.610Z,11.42
2018-08-24T07:32:38.333Z,11.47
2018-08-24T07:35:06.097Z,11.52
2018-08-24T07:37:33.814Z,11.53
2018-08-24T07:40:01.536Z,11.55
2018-08-24T07:42:29.239Z,11.55
2018-08-24T07:44:56.988Z,11.61
2018-08-24T07:47:24.664Z,11.66
2018-08-24T07:49:52.700Z,11.67
2018-08-24T07:52:20.428Z,11.66
2018-08-24T07:54:48.169Z,11.70
2018-08-24T07:57:15.937Z,11.71
2018-08-24T07:59:43.777Z,11.73
2018-08-24T08:02:11.466Z,11.77
2018-08-24T08:04:39.172Z,11.81
2018-08-24T08:07:06.940Z,11.81
2018-08-24T08:09:34.737Z,11.84
2018-08-24T08:12:02.427Z,11.81
2018-08-24T08:14:30.496Z,11.83
2018-08-24T08:16:59.224Z,11.89
2018-08-24T08:19:28.072Z,11.97
2018-08-24T08:21:55.911Z,11.90
2018-08-24T08:24:23.596Z,11.96
2018-08-24T08:26:51.346Z,11.96
2018-08-24T08:29:24.705Z,12.01
2018-08-24T08:31:52.383Z,12.08
2018-08-24T08:34:20.124Z,12.12
2018-08-24T08:36:47.825Z,12.15
2018-08-24T08:39:15.596Z,12.20
2018-08-24T08:41:43.308Z,12.21
2018-08-24T08:44:12.425Z,12.20
2018-08-24T08:46:40.226Z,12.22
2018-08-24T08:49:07.971Z,11.65
2018-08-24T08:51:35.678Z,12.12
2018-08-24T08:54:03.403Z,12.09
2018-08-24T08:56:31.220Z,12.08
2018-08-24T08:58:58.925Z,12.10
2018-08-24T09:01:26.608Z,12.12
2018-08-24T09:03:54.345Z,12.15
2018-08-24T09:06:22.067Z,12.18
2018-08-24T09:08:49.789Z,12.21
2018-08-24T09:11:17.503Z,12.25
2018-08-24T09:13:45.181Z,12.33
2018-08-24T09:16:12.854Z,12.41
2018-08-24T09:18:46.199Z,12.44
2018-08-24T09:21:19.402Z,12.52
2018-08-24T09:23:52.680Z,12.52
2018-08-24T09:26:25.876Z,12.50
2018-08-24T09:28:54.744Z,12.54
2018-08-24T09:31:31.808Z,12.61
2018-08-24T09:33:59.492Z,12.68
2018-08-24T09:36:27.213Z,12.64
2018-08-24T09:38:54.907Z,12.65
2018-08-24T09:41:22.621Z,12.63
2018-08-24T09:43:55.925Z,12.63
2018-08-24T09:46:29.277Z,12.60
2018-08-24T09:49:02.596Z,12.59
2018-08-24T09:51:30.280Z,12.53
2018-08-24T09:54:06.045Z,12.55
2018-08-24T09:56:34.828Z,12.59
2018-08-24T09:59:02.645Z,12.59
2018-08-24T10:01:36.172Z,12.61
2018-08-24T10:04:09.451Z,12.67
2018-08-24T10:06:42.776Z,12.75
2018-08-24T10:09:12.104Z,12.76
2018-08-24T10:11:39.926Z,12.81
2018-08-24T10:14:08.068Z,12.85
2018-08-24T10:16:35.860Z,12.87
2018-08-24T10:19:03.677Z,12.88
2018-08-24T10:21:31.387Z,12.94
2018-08-24T10:23:59.157Z,13.00
2018-08-24T10:26:26.860Z,13.03
2018-08-24T10:28:54.648Z,13.04
2018-08-24T10:31:22.350Z,13.08
2018-08-24T10:33:50.085Z,13.15
2018-08-24T10:36:17.845Z,13.23
2018-08-24T10:38:45.538Z,13.28
2018-08-24T10:41:13.250Z,13.26
2018-08-24T10:43:40.959Z,13.30
2018-08-24T10:46:08.700Z,13.31
2018-08-24T10:48:36.360Z,13.32
2018-08-24T10:51:04.141Z,13.39
2018-08-24T10:53:31.837Z,13.43
2018-08-24T10:55:59.543Z,13.48
2018-08-24T10:58:27.304Z,13.48
2018-08-24T11:00:54.975Z,13.49
2018-08-24T11:03:22.671Z,13.54
2018-08-24T11:05:50.364Z,13.59
2018-08-24T11:08:18.055Z,13.66
2018-08-24T11:10:45.779Z,13.68
2018-08-24T11:13:13.507Z,13.70
2018-08-24T11:15:41.348Z,13.73
2018-08-24T11:18:10.104Z,13.79
2018-08-24T11:20:39.324Z,13.87
2018-08-24T11:23:07.541Z,13.97
2018-08-24T11:25:35.276Z,14.12
2018-08-24T11:28:02.997Z,14.31
2018-08-24T11:30:30.708Z,14.46
2018-08-24T11:32:58.868Z,14.55
2018-08-24T11:35:26.615Z,14.57
2018-08-24T11:37:54.322Z,14.60
2018-08-24T11:40:22.046Z,14.67
2018-08-24T11:42:49.857Z,14.72
2018-08-24T11:45:17.607Z,14.76
2018-08-24T11:47:45.392Z,14.85
2018-08-24T11:50:13.109Z,14.93
2018-08-24T11:52:40.812Z,15.02
2018-08-24T11:55:08.565Z,15.09
2018-08-24T11:57:36.424Z,15.17
2018-08-24T12:00:04.472Z,15.30
2018-08-24T12:02:32.189Z,15.34
2018-08-24T12:04:59.923Z,15.39
2018-08-24T12:07:27.605Z,15.48
2018-08-24T12:09:55.284Z,15.59
2018-08-24T12:12:23.045Z,15.68
2018-08-24T12:14:50.763Z,15.74
2018-08-24T12:17:22.860Z,15.80
2018-08-24T12:19:50.669Z,15.89
2018-08-24T12:22:18.421Z,15.99
2018-08-24T12:24:46.130Z,16.06
2018-08-24T12:27:13.951Z,16.12
2018-08-24T12:29:41.717Z,16.16
2018-08-24T12:32:09.507Z,16.18
2018-08-24T12:34:37.260Z,16.24
2018-08-24T12:37:07.749Z,16.25
2018-08-24T12:39:35.461Z,16.27
2018-08-24T12:42:03.223Z,16.32
2018-08-24T12:44:30.934Z,16.41
2018-08-24T12:46:58.684Z,16.43
2018-08-24T12:49:26.450Z,16.43
2018-08-24T12:51:54.136Z,16.40
2018-08-24T12:54:21.857Z,16.39
2018-08-24T12:56:50.560Z,16.36
2018-08-24T12:59:18.259Z,16.36
2018-08-24T13:01:45.981Z,16.35
2018-08-24T13:04:13.726Z,16.34
2018-08-24T13:06:41.412Z,16.31
2018-08-24T13:09:09.242Z,16.34
2018-08-24T13:11:36.944Z,16.39
2018-08-24T13:14:04.648Z,16.42
2018-08-24T13:16:32.344Z,16.37
2018-08-24T13:19:00.097Z,16.39
2018-08-24T13:21:27.796Z,16.35
2018-08-24T13:23:55.480Z,16.34
2018-08-24T13:26:23.185Z,16.35
2018-08-24T13:28:50.894Z,16.34
2018-08-24T13:31:18.576Z,16.39
2018-08-24T13:33:46.305Z,16.39
2018-08-24T13:36:14.041Z,16.37
2018-08-24T13:38:41.764Z,16.40
2018-08-24T13:41:09.460Z,16.38
2018-08-24T13:43:37.167Z,16.35
2018-08-24T13:46:04.927Z,16.35
2018-08-24T13:48:32.677Z,16.26
2018-08-24T13:51:00.428Z,16.31
2018-08-24T13:53:28.290Z,16.33
2018-08-24T13:55:55.980Z,16.31
2018-08-24T13:58:23.712Z,16.31
2018-08-24T14:00:51.436Z,16.30
2018-08-24T14:03:19.181Z,16.31
2018-08-24T14:05:46.884Z,16.28
2018-08-24T14:08:14.587Z,16.30
2018-08-24T14:10:42.320Z,16.28
2018-08-24T14:13:10.135Z,16.30
2018-08-24T14:15:37.882Z,16.30
2018-08-24T14:18:05.672Z,16.29
2018-08-24T14:20:33.764Z,16.27
2018-08-24T14:23:01.599Z,16.24
2018-08-24T14:25:29.502Z,16.22
2018-08-24T14:27:57.248Z,16.23
2018-08-24T14:30:24.983Z,16.23
2018-08-24T14:32:52.680Z,16.25
2018-08-24T14:35:20.399Z,16.22
2018-08-24T14:37:48.104Z,16.21
2018-08-24T14:40:15.872Z,16.18
2018-08-24T14:42:43.630Z,16.18
2018-08-24T14:45:11.331Z,16.19
2018-08-24T14:47:39.018Z,16.17
2018-08-24T14:50:06.855Z,16.19
2018-08-24T14:52:34.584Z,16.19
2018-08-24T14:55:02.313Z,16.16
2018-08-24T14:57:30.045Z,16.15
2018-08-24T14:59:57.765Z,16.13
2018-08-24T15:02:25.495Z,16.14
2018-08-24T15:04:53.183Z,16.14
2018-08-24T15:07:21.184Z,16.10
2018-08-24T15:09:48.936Z,16.08
2018-08-24T15:12:16.636Z,16.03
2018-08-24T15:14:44.716Z,15.99
2018-08-24T15:17:12.461Z,16.00
2018-08-24T15:19:40.156Z,15.96
2018-08-24T15:22:07.952Z,15.96
2018-08-24T15:24:35.730Z,16.02
2018-08-24T15:27:03.472Z,16.04
2018-08-24T15:29:31.234Z,16.01
2018-08-24T15:31:58.936Z,15.97
2018-08-24T15:34:26.629Z,15.90
2018-08-24T15:36:54.320Z,15.89
2018-08-24T15:39:22.101Z,15.86
2018-08-24T15:41:49.837Z,15.86
2018-08-24T15:44:17.560Z,15.87
2018-08-24T15:46:45.252Z,15.77
2018-08-24T15:49:12.964Z,15.79
2018-08-24T15:51:40.660Z,15.75
2018-08-24T15:54:08.383Z,15.76
2018-08-24T15:56:36.120Z,15.78
2018-08-24T15:59:03.831Z,15.80
2018-08-24T16:01:31.518Z,15.78
2018-08-24T16:03:59.261Z,15.77
2018-08-24T16:06:26.949Z,15.76
2018-08-24T16:08:54.651Z,15.78
2018-08-24T16:11:22.394Z,15.77
2018-08-24T16:13:50.084Z,15.73
2018-08-24T16:16:17.838Z,15.66
2018-08-24T16:18:45.580Z,15.65
2018-08-24T16:21:13.291Z,15.62
2018-08-24T16:23:40.992Z,15.59
2018-08-24T16:26:13.308Z,15.60
2018-08-24T16:28:41.033Z,15.56
2018-08-24T16:31:08.732Z,15.59
2018-08-24T16:33:36.496Z,15.55
2018-08-24T16:36:04.208Z,15.56
2018-08-24T16:38:31.916Z,15.56
2018-08-24T16:40:59.609Z,15.56
2018-08-24T16:43:27.289Z,15.57
2018-08-24T16:45:55.062Z,15.53
2018-08-24T16:48:22.764Z,15.47
2018-08-24T16:50:50.448Z,15.45
2018-08-24T16:53:18.136Z,15.45
2018-08-24T16:55:45.880Z,15.45
2018-08-24T16:58:13.684Z,15.45
2018-08-24T17:00:41.429Z,15.44
2018-08-24T17:03:09.156Z,15.42
2018-08-24T17:05:36.856Z,15.44
2018-08-24T17:08:05.176Z,15.40
2018-08-24T17:10:32.884Z,15.40
2018-08-24T17:13:00.698Z,15.40
2018-08-24T17:15:28.353Z,15.40
2018-08-24T17:17:56.028Z,15.38
2018-08-24T17:20:23.744Z,15.39
2018-08-24T17:22:51.481Z,15.40
2018-08-24T17:25:19.229Z,15.35
2018-08-24T17:27:46.968Z,15.37
2018-08-24T17:30:14.712Z,15.34
2018-08-24T17:32:42.416Z,15.33
2018-08-24T17:35:10.120Z,15.34
2018-08-24T17:37:37.867Z,15.33
2018-08-24T17:40:05.707Z,15.30
2018-08-24T17:42:33.458Z,15.29
2018-08-24T17:45:01.151Z,15.25
2018-08-24T17:47:28.832Z,15.25
2018-08-24T17:49:57.035Z,15.25
2018-08-24T17:52:24.716Z,15.24
2018-08-24T17:54:52.468Z,15.22
2018-08-24T17:57:20.164Z,15.18
2018-08-24T17:59:47.873Z,15.19
2018-08-24T18:02:15.555Z,15.19
2018-08-24T18:04:43.256Z,15.16
2018-08-24T18:07:10.979Z,15.14
2018-08-24T18:09:38.706Z,15.13
2018-08-24T18:12:06.523Z,15.09
2018-08-24T18:14:34.237Z,15.08
2018-08-24T18:17:02.009Z,15.06
2018-08-24T18:19:29.688Z,15.08
2018-08-24T18:21:57.372Z,15.08
2018-08-24T18:24:25.129Z,15.03
2018-08-24T18:26:52.832Z,15.00
2018-08-24T18:29:20.633Z,14.98
2018-08-24T18:31:48.424Z,14.93
2018-08-24T18:34:16.143Z,14.89
2018-08-24T18:36:43.951Z,14.87
2018-08-24T18:39:12.288Z,14.87
2018-08-24T18:41:40.052Z,14.83
2018-08-24T18:44:08.237Z,14.79
2018-08-24T18:46:35.932Z,14.78
2018-08-24T18:49:04.031Z,14.75
2018-08-24T18:51:31.744Z,14.71
2018-08-24T18:53:59.472Z,14.69
2018-08-24T18:56:27.264Z,14.67
2018-08-24T18:58:54.940Z,14.69
2018-08-24T19:01:22.644Z,14.68
2018-08-24T19:03:50.344Z,14.64
2018-08-24T19:06:18.020Z,14.64
2018-08-24T19:08:45.734Z,14.62
2018-08-24T19:11:18.899Z,14.60
2018-08-24T19:13:46.743Z,14.60
2018-08-24T19:16:14.448Z,14.56
2018-08-24T19:18:47.729Z,14.58
2018-08-24T19:21:21.097Z,14.57
2018-08-24T19:23:48.835Z,14.56
2018-08-24T19:26:16.570Z,14.55
2018-08-24T19:28:49.865Z,14.52
2018-08-24T19:31:17.584Z,14.49
2018-08-24T19:33:45.246Z,14.47
2018-08-24T19:36:12.972Z,14.45
2018-08-24T19:38:40.776Z,14.42
2018-08-24T19:41:14.051Z,14.41
2018-08-24T19:43:41.779Z,14.39
2018-08-24T19:46:10.119Z,14.37
2018-08-24T19:48:43.469Z,14.35
2018-08-24T19:51:11.195Z,14.32
2018-08-24T19:53:38.870Z,14.30
2018-08-24T19:56:06.608Z,14.29
2018-08-24T19:58:39.834Z,14.26
2018-08-24T20:01:07.507Z,14.29
2018-08-24T20:03:35.200Z,14.28
2018-08-24T20:06:08.528Z,14.27
2018-08-24T20:08:41.866Z,14.29
2018-08-24T20:11:09.577Z,14.28
2018-08-24T20:13:37.269Z,14.29
2018-08-24T20:16:10.631Z,14.29
2018-08-24T20:18:38.362Z,14.28
2018-08-24T20:21:06.080Z,14.31
2018-08-24T20:23:33.789Z,14.30
2018-08-24T20:26:01.492Z,14.29
2018-08-24T20:28:29.195Z,14.31
2018-08-24T20:30:57.464Z,14.32
2018-08-24T20:33:25.152Z,14.32
2018-08-24T20:35:52.874Z,14.32
2018-08-24T20:38:20.672Z,14.32
2018-08-24T20:40:48.357Z,14.28
2018-08-24T20:43:16.075Z,14.32
2018-08-24T20:45:43.784Z,14.32
2018-08-24T20:48:11.452Z,14.33
2018-08-24T20:50:39.180Z,14.32
2018-08-24T20:53:06.899Z,14.35
2018-08-24T20:55:34.615Z,14.38
2018-08-24T20:58:02.344Z,14.37
2018-08-24T21:00:30.096Z,14.37
2018-08-24T21:02:57.771Z,14.37
2018-08-24T21:05:25.453Z,14.39
2018-08-24T21:07:53.179Z,14.38
2018-08-24T21:10:20.918Z,14.36
2018-08-24T21:12:48.591Z,14.38
2018-08-24T21:15:16.353Z,14.39
2018-08-24T21:17:44.060Z,14.41
2018-08-24T21:20:11.743Z,14.42
2018-08-24T21:22:39.493Z,14.43
2018-08-24T21:25:07.609Z,14.43
2018-08-24T21:27:35.516Z,14.42
2018-08-24T21:30:03.361Z,14.46
2018-08-24T21:32:31.052Z,14.45
2018-08-24T21:34:58.784Z,14.45
2018-08-24T21:37:26.496Z,14.45
2018-08-24T21:39:54.239Z,14.46
2018-08-24T21:42:21.926Z,14.46
2018-08-24T21:44:49.692Z,14.45
2018-08-24T21:47:17.388Z,14.45
2018-08-24T21:49:45.076Z,14.45
2018-08-24T21:52:12.796Z,14.47
2018-08-24T21:54:40.482Z,14.47
2018-08-24T21:57:08.232Z,14.48
2018-08-24T21:59:35.914Z,14.47
2018-08-24T22:02:03.713Z,14.49
2018-08-24T22:04:31.436Z,14.49
2018-08-24T22:06:59.215Z,14.49
2018-08-24T22:09:26.896Z,14.51
2018-08-24T22:11:54.601Z,14.53
2018-08-24T22:14:22.366Z,14.54
2018-08-24T22:16:50.172Z,14.55
2018-08-24T22:19:17.843Z,14.56
2018-08-24T22:21:45.552Z,14.55
2018-08-24T22:24:13.303Z,14.55
2018-08-24T22:26:40.995Z,14.54
2018-08-24T22:29:08.771Z,14.51
2018-08-24T22:31:36.472Z,14.48
2018-08-24T22:34:04.204Z,14.48
2018-08-24T22:36:31.910Z,14.52
2018-08-24T22:38:59.623Z,14.54
2018-08-24T22:41:27.372Z,14.52
2018-08-24T22:43:55.047Z,14.53
2018-08-24T22:46:22.751Z,14.54
2018-08-24T22:48:50.427Z,14.55
2018-08-24T22:51:18.120Z,14.55
2018-08-24T22:53:45.859Z,14.54
2018-08-24T22:56:13.600Z,14.56
2018-08-24T22:58:41.268Z,14.57
2018-08-24T23:01:09.105Z,14.57
2018-08-24T23:03:36.776Z,14.57
2018-08-24T23:06:04.567Z,14.60
2018-08-24T23:08:32.295Z,14.61
2018-08-24T23:11:00.065Z,14.61
2018-08-24T23:13:27.833Z,14.61
2018-08-24T23:15:55.543Z,14.63
2018-08-24T23:18:23.239Z,14.62
2018-08-24T23:20:50.923Z,14.64
2018-08-24T23:23:18.658Z,14.64
2018-08-24T23:25:46.351Z,14.63
2018-08-24T23:28:14.055Z,14.66
2018-08-24T23:30:41.796Z,14.65
2018-08-24T23:33:09.474Z,14.65
2018-08-24T23:35:37.183Z,14.64
2018-08-24T23:38:04.936Z,14.65
2018-08-24T23:40:32.608Z,14.64
2018-08-24T23:43:00.304Z,14.65
2018-08-24T23:45:28.029Z,14.66
2018-08-24T23:47:55.716Z,14.66
2018-08-24T23:50:23.398Z,14.68
2018-08-24T23:52:51.113Z,14.66
2018-08-24T23:55:18.822Z,14.67
2018-08-24T23:57:46.618Z,14.70
